sensor_id;sensor_type;location;lat;lon;timestamp;temperature;humidity
51908;DHT22;39320;53.214;6.556;2023-01-08T00:01:22;10.20;99.90
51908;DHT22;39320;53.214;6.556;2023-01-08T00:03:49;10.20;99.90
51908;DHT22;39320;53.214;6.556;2023-01-08T00:06:16;10.20;99.90
51908;DHT22;39320;53.214;6.556;2023-01-08T00:08:42;10.20;99.90
51908;DHT22;39320;53.214;6.556;2023-01-08T00:11:08;10.20;99.90
51908;DHT22;39320;53.214;6.556;2023-01-08T00:13:34;10.20;99.90
51908;DHT22;39320;53.214;6.556;2023-01-08T00:16:03;10.20;99.90
51908;DHT22;39320;53.214;6.556;2023-01-08T00:18:29;10.20;99.90
51908;DHT22;39320;53.214;6.556;2023-01-08T00:20:55;10.20;99.90
51908;DHT22;39320;53.214;6.556;2023-01-08T00:23:20;10.30;99.90
51908;DHT22;39320;53.214;6.556;2023-01-08T00:25:47;10.30;99.90
51908;DHT22;39320;53.214;6.556;2023-01-08T00:28:12;10.30;99.90
51908;DHT22;39320;53.214;6.556;2023-01-08T00:30:39;10.20;99.90
51908;DHT22;39320;53.214;6.556;2023-01-08T00:33:05;10.30;99.90
51908;DHT22;39320;53.214;6.556;2023-01-08T00:35:30;10.30;99.90
51908;DHT22;39320;53.214;6.556;2023-01-08T00:37:56;10.30;99.90
51908;DHT22;39320;53.214;6.556;2023-01-08T00:40:22;10.30;99.90
51908;DHT22;39320;53.214;6.556;2023-01-08T00:42:47;10.30;99.90
51908;DHT22;39320;53.214;6.556;2023-01-08T00:45:13;10.30;99.90
51908;DHT22;39320;53.214;6.556;2023-01-08T00:47:39;10.20;99.90
51908;DHT22;39320;53.214;6.556;2023-01-08T00:50:04;10.30;99.90
51908;DHT22;39320;53.214;6.556;2023-01-08T00:52:30;10.30;99.90
51908;DHT22;39320;53.214;6.556;2023-01-08T00:54:56;10.30;99.90
51908;DHT22;39320;53.214;6.556;2023-01-08T00:57:21;10.20;99.90
51908;DHT22;39320;53.214;6.556;2023-01-08T00:59:47;10.30;99.90
51908;DHT22;39320;53.214;6.556;2023-01-08T01:02:13;10.20;99.90
51908;DHT22;39320;53.214;6.556;2023-01-08T01:04:38;10.20;99.90
51908;DHT22;39320;53.214;6.556;2023-01-08T01:07:04;10.30;99.90
51908;DHT22;39320;53.214;6.556;2023-01-08T01:09:30;10.20;99.90
51908;DHT22;39320;53.214;6.556;2023-01-08T01:11:56;10.20;99.90
51908;DHT22;39320;53.214;6.556;2023-01-08T01:14:22;10.20;99.90
51908;DHT22;39320;53.214;6.556;2023-01-08T01:16:47;10.20;99.90
51908;DHT22;39320;53.214;6.556;2023-01-08T01:19:14;10.20;99.90
51908;DHT22;39320;53.214;6.556;2023-01-08T01:21:39;10.20;99.90
51908;DHT22;39320;53.214;6.556;2023-01-08T01:24:06;10.30;99.90
51908;DHT22;39320;53.214;6.556;2023-01-08T01:26:32;10.20;99.90
51908;DHT22;39320;53.214;6.556;2023-01-08T01:28:58;10.20;99.90
51908;DHT22;39320;53.214;6.556;2023-01-08T01:31:24;10.10;99.90
51908;DHT22;39320;53.214;6.556;2023-01-08T01:33:50;10.20;99.90
51908;DHT22;39320;53.214;6.556;2023-01-08T01:36:16;10.20;99.90
51908;DHT22;39320;53.214;6.556;2023-01-08T01:38:43;10.20;99.90
51908;DHT22;39320;53.214;6.556;2023-01-08T01:41:21;10.20;99.90
51908;DHT22;39320;53.214;6.556;2023-01-08T01:43:48;10.20;99.90
51908;DHT22;39320;53.214;6.556;2023-01-08T01:46:59;10.20;99.90
51908;DHT22;39320;53.214;6.556;2023-01-08T01:49:02;10.20;99.90
51908;DHT22;39320;53.214;6.556;2023-01-08T01:51:31;10.20;99.90
51908;DHT22;39320;53.214;6.556;2023-01-08T01:53:58;10.30;99.90
51908;DHT22;39320;53.214;6.556;2023-01-08T01:56:25;10.20;99.90
51908;DHT22;39320;53.214;6.556;2023-01-08T01:58:51;10.20;99.90
51908;DHT22;39320;53.214;6.556;2023-01-08T02:01:17;10.20;99.90
51908;DHT22;39320;53.214;6.556;2023-01-08T02:03:42;10.10;99.90
51908;DHT22;39320;53.214;6.556;2023-01-08T02:06:17;10.20;99.90
51908;DHT22;39320;53.214;6.556;2023-01-08T02:14:40;10.10;99.90
51908;DHT22;39320;53.214;6.556;2023-01-08T02:16:41;10.10;99.90
51908;DHT22;39320;53.214;6.556;2023-01-08T02:19:16;10.10;99.90
51908;DHT22;39320;53.214;6.556;2023-01-08T02:24:15;10.00;99.90
51908;DHT22;39320;53.214;6.556;2023-01-08T02:26:41;10.00;99.90
51908;DHT22;39320;53.214;6.556;2023-01-08T02:29:10;10.00;99.90
51908;DHT22;39320;53.214;6.556;2023-01-08T02:31:40;9.90;99.90
51908;DHT22;39320;53.214;6.556;2023-01-08T02:34:06;9.90;99.90
51908;DHT22;39320;53.214;6.556;2023-01-08T02:36:39;9.90;99.90
51908;DHT22;39320;53.214;6.556;2023-01-08T02:46:59;9.90;99.90
51908;DHT22;39320;53.214;6.556;2023-01-08T02:49:27;9.80;99.90
51908;DHT22;39320;53.214;6.556;2023-01-08T02:51:54;9.80;99.90
51908;DHT22;39320;53.214;6.556;2023-01-08T02:54:23;9.70;99.90
51908;DHT22;39320;53.214;6.556;2023-01-08T02:56:56;9.80;99.90
51908;DHT22;39320;53.214;6.556;2023-01-08T02:59:22;9.70;99.90
51908;DHT22;39320;53.214;6.556;2023-01-08T03:01:48;9.70;99.90
51908;DHT22;39320;53.214;6.556;2023-01-08T03:04:18;9.70;99.90
51908;DHT22;39320;53.214;6.556;2023-01-08T03:06:44;9.70;99.90
51908;DHT22;39320;53.214;6.556;2023-01-08T03:09:10;9.70;99.90
51908;DHT22;39320;53.214;6.556;2023-01-08T03:11:38;9.70;99.90
51908;DHT22;39320;53.214;6.556;2023-01-08T03:16:38;9.70;99.90
51908;DHT22;39320;53.214;6.556;2023-01-08T03:19:12;9.60;99.90
51908;DHT22;39320;53.214;6.556;2023-01-08T03:21:38;9.60;99.90
51908;DHT22;39320;53.214;6.556;2023-01-08T03:24:05;9.60;99.90
51908;DHT22;39320;53.214;6.556;2023-01-08T03:26:32;9.60;99.90
51908;DHT22;39320;53.214;6.556;2023-01-08T03:29:00;9.80;99.90
51908;DHT22;39320;53.214;6.556;2023-01-08T03:31:27;9.60;99.90
51908;DHT22;39320;53.214;6.556;2023-01-08T03:33:53;9.60;99.90
51908;DHT22;39320;53.214;6.556;2023-01-08T03:36:23;9.60;99.90
51908;DHT22;39320;53.214;6.556;2023-01-08T03:38:55;9.60;99.90
51908;DHT22;39320;53.214;6.556;2023-01-08T03:41:23;9.60;99.90
51908;DHT22;39320;53.214;6.556;2023-01-08T03:43:51;9.60;99.90
51908;DHT22;39320;53.214;6.556;2023-01-08T03:46:21;9.60;99.90
51908;DHT22;39320;53.214;6.556;2023-01-08T03:48:47;9.50;99.90
51908;DHT22;39320;53.214;6.556;2023-01-08T03:51:14;9.60;99.90
51908;DHT22;39320;53.214;6.556;2023-01-08T03:53:39;9.50;99.90
51908;DHT22;39320;53.214;6.556;2023-01-08T03:56:05;9.50;99.90
51908;DHT22;39320;53.214;6.556;2023-01-08T03:58:31;9.50;99.90
51908;DHT22;39320;53.214;6.556;2023-01-08T04:00:56;9.50;99.90
51908;DHT22;39320;53.214;6.556;2023-01-08T04:03:22;9.50;99.90
51908;DHT22;39320;53.214;6.556;2023-01-08T04:05:49;9.50;99.90
51908;DHT22;39320;53.214;6.556;2023-01-08T04:08:14;9.30;99.90
51908;DHT22;39320;53.214;6.556;2023-01-08T04:10:40;9.50;99.90
51908;DHT22;39320;53.214;6.556;2023-01-08T04:13:05;9.60;99.90
51908;DHT22;39320;53.214;6.556;2023-01-08T04:15:31;9.50;99.90
51908;DHT22;39320;53.214;6.556;2023-01-08T04:17:57;9.50;99.90
51908;DHT22;39320;53.214;6.556;2023-01-08T04:20:23;9.50;99.90
51908;DHT22;39320;53.214;6.556;2023-01-08T04:22:49;9.50;99.90
51908;DHT22;39320;53.214;6.556;2023-01-08T04:25:14;9.50;99.90
51908;DHT22;39320;53.214;6.556;2023-01-08T04:27:40;9.40;99.90
51908;DHT22;39320;53.214;6.556;2023-01-08T04:30:06;9.40;99.90
51908;DHT22;39320;53.214;6.556;2023-01-08T04:32:31;9.40;99.90
51908;DHT22;39320;53.214;6.556;2023-01-08T04:34:57;9.40;99.90
51908;DHT22;39320;53.214;6.556;2023-01-08T04:37:23;9.40;99.90
51908;DHT22;39320;53.214;6.556;2023-01-08T04:39:48;9.40;99.90
51908;DHT22;39320;53.214;6.556;2023-01-08T04:42:14;9.40;99.90
51908;DHT22;39320;53.214;6.556;2023-01-08T04:44:40;9.40;99.90
51908;DHT22;39320;53.214;6.556;2023-01-08T04:47:05;9.40;99.90
51908;DHT22;39320;53.214;6.556;2023-01-08T04:49:31;9.40;99.90
51908;DHT22;39320;53.214;6.556;2023-01-08T04:51:56;9.40;99.90
51908;DHT22;39320;53.214;6.556;2023-01-08T04:54:22;9.40;99.90
51908;DHT22;39320;53.214;6.556;2023-01-08T04:56:51;9.50;99.90
51908;DHT22;39320;53.214;6.556;2023-01-08T04:59:17;9.50;99.90
51908;DHT22;39320;53.214;6.556;2023-01-08T05:01:42;9.50;99.90
51908;DHT22;39320;53.214;6.556;2023-01-08T05:04:08;9.50;99.90
51908;DHT22;39320;53.214;6.556;2023-01-08T05:06:35;9.50;99.90
51908;DHT22;39320;53.214;6.556;2023-01-08T05:09:00;9.50;99.90
51908;DHT22;39320;53.214;6.556;2023-01-08T05:11:26;9.50;99.90
51908;DHT22;39320;53.214;6.556;2023-01-08T05:13:52;9.50;99.90
51908;DHT22;39320;53.214;6.556;2023-01-08T05:16:18;9.50;99.90
51908;DHT22;39320;53.214;6.556;2023-01-08T05:18:44;9.50;99.90
51908;DHT22;39320;53.214;6.556;2023-01-08T05:21:10;9.50;99.90
51908;DHT22;39320;53.214;6.556;2023-01-08T05:23:36;9.50;99.90
51908;DHT22;39320;53.214;6.556;2023-01-08T05:26:02;9.40;99.90
51908;DHT22;39320;53.214;6.556;2023-01-08T05:28:28;9.40;99.90
51908;DHT22;39320;53.214;6.556;2023-01-08T05:30:54;9.50;99.90
51908;DHT22;39320;53.214;6.556;2023-01-08T05:33:20;9.20;99.90
51908;DHT22;39320;53.214;6.556;2023-01-08T05:35:48;9.50;99.90
51908;DHT22;39320;53.214;6.556;2023-01-08T05:38:14;9.50;99.90
51908;DHT22;39320;53.214;6.556;2023-01-08T05:40:40;9.50;99.90
51908;DHT22;39320;53.214;6.556;2023-01-08T05:43:06;9.50;99.90
51908;DHT22;39320;53.214;6.556;2023-01-08T05:45:32;9.50;99.90
51908;DHT22;39320;53.214;6.556;2023-01-08T05:47:58;9.50;99.90
51908;DHT22;39320;53.214;6.556;2023-01-08T05:50:23;9.50;99.90
51908;DHT22;39320;53.214;6.556;2023-01-08T05:52:49;9.40;99.90
51908;DHT22;39320;53.214;6.556;2023-01-08T05:55:15;9.50;99.90
51908;DHT22;39320;53.214;6.556;2023-01-08T05:57:40;9.50;99.90
51908;DHT22;39320;53.214;6.556;2023-01-08T06:00:06;9.40;99.90
51908;DHT22;39320;53.214;6.556;2023-01-08T06:02:32;9.40;99.90
51908;DHT22;39320;53.214;6.556;2023-01-08T06:04:58;9.40;99.90
51908;DHT22;39320;53.214;6.556;2023-01-08T06:07:24;9.40;99.90
51908;DHT22;39320;53.214;6.556;2023-01-08T06:09:49;9.50;99.90
51908;DHT22;39320;53.214;6.556;2023-01-08T06:12:15;9.40;99.90
51908;DHT22;39320;53.214;6.556;2023-01-08T06:14:41;9.40;99.90
51908;DHT22;39320;53.214;6.556;2023-01-08T06:17:07;9.40;99.90
51908;DHT22;39320;53.214;6.556;2023-01-08T06:19:32;9.40;99.90
51908;DHT22;39320;53.214;6.556;2023-01-08T06:21:58;9.40;99.90
51908;DHT22;39320;53.214;6.556;2023-01-08T06:24:24;9.40;99.90
51908;DHT22;39320;53.214;6.556;2023-01-08T06:26:49;9.40;99.90
51908;DHT22;39320;53.214;6.556;2023-01-08T06:29:15;9.40;99.90
51908;DHT22;39320;53.214;6.556;2023-01-08T06:31:41;9.40;99.90
51908;DHT22;39320;53.214;6.556;2023-01-08T06:34:06;9.40;99.90
51908;DHT22;39320;53.214;6.556;2023-01-08T06:36:32;9.40;99.90
51908;DHT22;39320;53.214;6.556;2023-01-08T06:38:57;9.40;99.90
51908;DHT22;39320;53.214;6.556;2023-01-08T06:41:24;9.30;99.90
51908;DHT22;39320;53.214;6.556;2023-01-08T06:43:50;9.30;99.90
51908;DHT22;39320;53.214;6.556;2023-01-08T06:46:15;9.40;99.90
51908;DHT22;39320;53.214;6.556;2023-01-08T06:48:41;9.30;99.90
51908;DHT22;39320;53.214;6.556;2023-01-08T06:51:07;9.30;99.90
51908;DHT22;39320;53.214;6.556;2023-01-08T06:53:32;9.40;99.90
51908;DHT22;39320;53.214;6.556;2023-01-08T06:55:58;9.10;99.90
51908;DHT22;39320;53.214;6.556;2023-01-08T06:58:24;9.40;99.90
51908;DHT22;39320;53.214;6.556;2023-01-08T07:00:50;9.30;99.90
51908;DHT22;39320;53.214;6.556;2023-01-08T07:03:16;9.40;99.90
51908;DHT22;39320;53.214;6.556;2023-01-08T07:05:41;9.30;99.90
51908;DHT22;39320;53.214;6.556;2023-01-08T07:08:11;9.30;99.90
51908;DHT22;39320;53.214;6.556;2023-01-08T07:10:38;9.30;99.90
51908;DHT22;39320;53.214;6.556;2023-01-08T07:13:05;9.20;99.90
51908;DHT22;39320;53.214;6.556;2023-01-08T07:15:36;9.30;99.90
51908;DHT22;39320;53.214;6.556;2023-01-08T07:18:09;9.20;99.90
51908;DHT22;39320;53.214;6.556;2023-01-08T07:20:35;9.30;99.90
51908;DHT22;39320;53.214;6.556;2023-01-08T07:23:05;9.20;99.90
51908;DHT22;39320;53.214;6.556;2023-01-08T07:25:31;9.20;99.90
51908;DHT22;39320;53.214;6.556;2023-01-08T07:27:57;9.20;99.90
51908;DHT22;39320;53.214;6.556;2023-01-08T07:30:22;9.20;99.90
51908;DHT22;39320;53.214;6.556;2023-01-08T07:32:48;9.20;99.90
51908;DHT22;39320;53.214;6.556;2023-01-08T07:35:14;9.20;99.90
51908;DHT22;39320;53.214;6.556;2023-01-08T07:37:40;9.20;99.90
51908;DHT22;39320;53.214;6.556;2023-01-08T07:40:06;9.10;99.90
51908;DHT22;39320;53.214;6.556;2023-01-08T07:42:32;9.10;99.90
51908;DHT22;39320;53.214;6.556;2023-01-08T07:44:58;9.10;99.90
51908;DHT22;39320;53.214;6.556;2023-01-08T07:47:23;9.10;99.90
51908;DHT22;39320;53.214;6.556;2023-01-08T07:49:49;9.10;99.90
51908;DHT22;39320;53.214;6.556;2023-01-08T07:52:15;9.10;99.90
51908;DHT22;39320;53.214;6.556;2023-01-08T07:54:40;9.10;99.90
51908;DHT22;39320;53.214;6.556;2023-01-08T07:57:06;9.10;99.90
51908;DHT22;39320;53.214;6.556;2023-01-08T07:59:32;9.00;99.90
51908;DHT22;39320;53.214;6.556;2023-01-08T08:01:57;9.00;99.90
51908;DHT22;39320;53.214;6.556;2023-01-08T08:04:23;9.00;99.90
51908;DHT22;39320;53.214;6.556;2023-01-08T08:06:49;9.00;99.90
51908;DHT22;39320;53.214;6.556;2023-01-08T08:09:15;9.00;99.90
51908;DHT22;39320;53.214;6.556;2023-01-08T08:11:41;9.00;99.90
51908;DHT22;39320;53.214;6.556;2023-01-08T08:14:06;8.90;99.90
51908;DHT22;39320;53.214;6.556;2023-01-08T08:16:32;8.90;99.90
51908;DHT22;39320;53.214;6.556;2023-01-08T08:18:58;8.90;99.90
51908;DHT22;39320;53.214;6.556;2023-01-08T08:21:24;8.90;99.90
51908;DHT22;39320;53.214;6.556;2023-01-08T08:23:50;8.90;99.90
51908;DHT22;39320;53.214;6.556;2023-01-08T08:26:15;8.90;99.90
51908;DHT22;39320;53.214;6.556;2023-01-08T08:28:41;8.90;99.90
51908;DHT22;39320;53.214;6.556;2023-01-08T08:31:07;8.90;99.90
51908;DHT22;39320;53.214;6.556;2023-01-08T08:33:32;8.90;99.90
51908;DHT22;39320;53.214;6.556;2023-01-08T08:35:58;8.80;99.90
51908;DHT22;39320;53.214;6.556;2023-01-08T08:38:24;8.80;99.90
51908;DHT22;39320;53.214;6.556;2023-01-08T08:40:51;8.80;99.90
51908;DHT22;39320;53.214;6.556;2023-01-08T08:43:16;8.80;99.90
51908;DHT22;39320;53.214;6.556;2023-01-08T08:45:42;8.80;99.90
51908;DHT22;39320;53.214;6.556;2023-01-08T08:48:08;8.80;99.90
51908;DHT22;39320;53.214;6.556;2023-01-08T08:50:34;8.80;99.90
51908;DHT22;39320;53.214;6.556;2023-01-08T08:53:00;8.80;99.90
51908;DHT22;39320;53.214;6.556;2023-01-08T08:55:29;8.80;99.90
51908;DHT22;39320;53.214;6.556;2023-01-08T08:58:00;8.80;99.90
51908;DHT22;39320;53.214;6.556;2023-01-08T09:00:26;8.80;99.90
51908;DHT22;39320;53.214;6.556;2023-01-08T09:02:51;8.80;99.90
51908;DHT22;39320;53.214;6.556;2023-01-08T09:05:17;8.80;99.90
51908;DHT22;39320;53.214;6.556;2023-01-08T09:07:42;8.80;99.90
51908;DHT22;39320;53.214;6.556;2023-01-08T09:10:08;8.80;99.90
51908;DHT22;39320;53.214;6.556;2023-01-08T09:12:34;8.80;99.90
51908;DHT22;39320;53.214;6.556;2023-01-08T09:14:59;8.80;99.90
51908;DHT22;39320;53.214;6.556;2023-01-08T09:17:25;8.80;99.90
51908;DHT22;39320;53.214;6.556;2023-01-08T09:19:51;8.90;99.90
51908;DHT22;39320;53.214;6.556;2023-01-08T09:22:17;8.80;99.90
51908;DHT22;39320;53.214;6.556;2023-01-08T09:24:42;8.90;99.90
51908;DHT22;39320;53.214;6.556;2023-01-08T09:27:08;8.90;99.90
51908;DHT22;39320;53.214;6.556;2023-01-08T09:29:34;8.90;99.90
51908;DHT22;39320;53.214;6.556;2023-01-08T09:31:59;8.90;99.90
51908;DHT22;39320;53.214;6.556;2023-01-08T09:34:26;8.90;99.90
51908;DHT22;39320;53.214;6.556;2023-01-08T09:36:52;8.90;99.90
51908;DHT22;39320;53.214;6.556;2023-01-08T09:39:18;8.90;99.90
51908;DHT22;39320;53.214;6.556;2023-01-08T09:41:44;8.90;99.90
51908;DHT22;39320;53.214;6.556;2023-01-08T09:44:13;8.90;99.90
51908;DHT22;39320;53.214;6.556;2023-01-08T09:46:39;9.00;99.90
51908;DHT22;39320;53.214;6.556;2023-01-08T09:49:05;9.00;99.90
51908;DHT22;39320;53.214;6.556;2023-01-08T09:54:29;9.00;99.90
51908;DHT22;39320;53.214;6.556;2023-01-08T09:56:54;9.00;99.90
51908;DHT22;39320;53.214;6.556;2023-01-08T09:59:20;9.00;99.90
51908;DHT22;39320;53.214;6.556;2023-01-08T10:01:46;9.00;99.90
51908;DHT22;39320;53.214;6.556;2023-01-08T10:04:16;9.00;99.90
51908;DHT22;39320;53.214;6.556;2023-01-08T10:07:01;9.00;99.90
51908;DHT22;39320;53.214;6.556;2023-01-08T10:09:30;9.00;99.90
51908;DHT22;39320;53.214;6.556;2023-01-08T10:11:57;9.00;99.90
51908;DHT22;39320;53.214;6.556;2023-01-08T10:14:24;9.10;99.90
51908;DHT22;39320;53.214;6.556;2023-01-08T10:16:55;9.10;99.90
51908;DHT22;39320;53.214;6.556;2023-01-08T10:19:22;9.10;99.90
51908;DHT22;39320;53.214;6.556;2023-01-08T10:21:48;9.10;99.90
51908;DHT22;39320;53.214;6.556;2023-01-08T10:24:14;9.10;99.90
51908;DHT22;39320;53.214;6.556;2023-01-08T10:26:40;9.10;99.90
51908;DHT22;39320;53.214;6.556;2023-01-08T10:29:13;9.10;99.90
51908;DHT22;39320;53.214;6.556;2023-01-08T10:31:52;9.10;99.90
51908;DHT22;39320;53.214;6.556;2023-01-08T10:34:26;9.00;99.90
51908;DHT22;39320;53.214;6.556;2023-01-08T10:36:53;9.10;99.90
51908;DHT22;39320;53.214;6.556;2023-01-08T10:39:23;9.10;99.90
51908;DHT22;39320;53.214;6.556;2023-01-08T10:41:50;9.10;99.90
51908;DHT22;39320;53.214;6.556;2023-01-08T10:44:18;9.20;99.90
51908;DHT22;39320;53.214;6.556;2023-01-08T10:46:44;9.20;99.90
51908;DHT22;39320;53.214;6.556;2023-01-08T10:49:14;9.20;99.90
51908;DHT22;39320;53.214;6.556;2023-01-08T10:51:47;9.20;99.90
51908;DHT22;39320;53.214;6.556;2023-01-08T10:54:14;9.30;99.90
51908;DHT22;39320;53.214;6.556;2023-01-08T10:56:45;9.30;99.90
51908;DHT22;39320;53.214;6.556;2023-01-08T10:59:17;9.30;99.90
51908;DHT22;39320;53.214;6.556;2023-01-08T11:01:45;9.30;99.90
51908;DHT22;39320;53.214;6.556;2023-01-08T11:04:19;9.30;99.90
51908;DHT22;39320;53.214;6.556;2023-01-08T11:06:46;9.30;99.90
51908;DHT22;39320;53.214;6.556;2023-01-08T11:09:16;9.30;99.90
51908;DHT22;39320;53.214;6.556;2023-01-08T11:11:43;9.30;99.90
51908;DHT22;39320;53.214;6.556;2023-01-08T11:16:53;9.30;99.90
51908;DHT22;39320;53.214;6.556;2023-01-08T11:19:25;9.40;99.90
51908;DHT22;39320;53.214;6.556;2023-01-08T11:22:02;9.40;99.90
51908;DHT22;39320;53.214;6.556;2023-01-08T11:24:28;9.40;99.90
51908;DHT22;39320;53.214;6.556;2023-01-08T11:26:56;9.40;99.90
51908;DHT22;39320;53.214;6.556;2023-01-08T11:29:27;9.40;99.90
51908;DHT22;39320;53.214;6.556;2023-01-08T11:31:56;9.40;99.90
51908;DHT22;39320;53.214;6.556;2023-01-08T11:34:32;9.50;99.90
51908;DHT22;39320;53.214;6.556;2023-01-08T11:37:04;9.50;99.90
51908;DHT22;39320;53.214;6.556;2023-01-08T11:39:34;9.40;99.90
51908;DHT22;39320;53.214;6.556;2023-01-08T11:42:05;9.50;99.90
51908;DHT22;39320;53.214;6.556;2023-01-08T11:47:12;9.40;99.90
51908;DHT22;39320;53.214;6.556;2023-01-08T11:49:45;9.40;99.90
51908;DHT22;39320;53.214;6.556;2023-01-08T11:52:33;9.50;99.90
51908;DHT22;39320;53.214;6.556;2023-01-08T11:55:12;9.50;99.90
51908;DHT22;39320;53.214;6.556;2023-01-08T11:57:50;9.50;99.90
51908;DHT22;39320;53.214;6.556;2023-01-08T12:03:00;9.50;99.90
51908;DHT22;39320;53.214;6.556;2023-01-08T12:05:28;9.60;99.90
51908;DHT22;39320;53.214;6.556;2023-01-08T12:08:04;9.60;99.90
51908;DHT22;39320;53.214;6.556;2023-01-08T12:10:41;9.70;99.90
51908;DHT22;39320;53.214;6.556;2023-01-08T12:15:52;9.80;99.90
51908;DHT22;39320;53.214;6.556;2023-01-08T12:28:45;10.00;99.90
51908;DHT22;39320;53.214;6.556;2023-01-08T12:36:10;10.00;99.90
51908;DHT22;39320;53.214;6.556;2023-01-08T12:38:42;10.00;99.90
51908;DHT22;39320;53.214;6.556;2023-01-08T12:41:12;10.00;99.90
51908;DHT22;39320;53.214;6.556;2023-01-08T12:43:50;10.10;99.90
51908;DHT22;39320;53.214;6.556;2023-01-08T12:46:17;10.00;99.90
51908;DHT22;39320;53.214;6.556;2023-01-08T12:48:44;10.00;99.90
51908;DHT22;39320;53.214;6.556;2023-01-08T12:53:44;10.00;99.90
51908;DHT22;39320;53.214;6.556;2023-01-08T12:56:19;10.00;99.90
51908;DHT22;39320;53.214;6.556;2023-01-08T12:59:03;10.00;99.90
51908;DHT22;39320;53.214;6.556;2023-01-08T13:01:46;10.10;99.90
51908;DHT22;39320;53.214;6.556;2023-01-08T13:04:13;10.10;99.90
51908;DHT22;39320;53.214;6.556;2023-01-08T13:06:51;10.10;99.90
51908;DHT22;39320;53.214;6.556;2023-01-08T13:09:21;10.20;99.90
51908;DHT22;39320;53.214;6.556;2023-01-08T13:11:51;10.20;99.90
51908;DHT22;39320;53.214;6.556;2023-01-08T13:14:18;10.30;99.90
51908;DHT22;39320;53.214;6.556;2023-01-08T13:16:44;10.00;99.90
51908;DHT22;39320;53.214;6.556;2023-01-08T13:19:26;10.50;99.90
51908;DHT22;39320;53.214;6.556;2023-01-08T13:21:54;10.60;99.90
51908;DHT22;39320;53.214;6.556;2023-01-08T13:24:24;10.60;99.90
51908;DHT22;39320;53.214;6.556;2023-01-08T13:26:54;10.70;99.90
51908;DHT22;39320;53.214;6.556;2023-01-08T13:29:37;10.80;99.90
51908;DHT22;39320;53.214;6.556;2023-01-08T13:32:03;10.90;99.90
51908;DHT22;39320;53.214;6.556;2023-01-08T13:34:34;10.90;99.90
51908;DHT22;39320;53.214;6.556;2023-01-08T13:37:00;11.00;99.90
51908;DHT22;39320;53.214;6.556;2023-01-08T13:39:34;10.90;99.90
51908;DHT22;39320;53.214;6.556;2023-01-08T13:44:37;10.90;99.90
51908;DHT22;39320;53.214;6.556;2023-01-08T13:49:51;10.70;99.90
51908;DHT22;39320;53.214;6.556;2023-01-08T13:55:32;10.50;99.90
51908;DHT22;39320;53.214;6.556;2023-01-08T13:58:03;10.40;99.90
51908;DHT22;39320;53.214;6.556;2023-01-08T14:00:51;10.30;99.90
51908;DHT22;39320;53.214;6.556;2023-01-08T14:05:47;10.30;99.90
51908;DHT22;39320;53.214;6.556;2023-01-08T14:08:23;10.20;99.90
51908;DHT22;39320;53.214;6.556;2023-01-08T14:10:50;10.20;99.90
51908;DHT22;39320;53.214;6.556;2023-01-08T14:13:18;10.20;99.90
51908;DHT22;39320;53.214;6.556;2023-01-08T14:15:45;10.20;99.90
51908;DHT22;39320;53.214;6.556;2023-01-08T14:18:12;10.20;99.90
51908;DHT22;39320;53.214;6.556;2023-01-08T14:20:39;10.10;99.90
51908;DHT22;39320;53.214;6.556;2023-01-08T14:23:09;10.00;99.90
51908;DHT22;39320;53.214;6.556;2023-01-08T14:25:35;10.10;99.90
51908;DHT22;39320;53.214;6.556;2023-01-08T14:28:02;10.00;99.90
51908;DHT22;39320;53.214;6.556;2023-01-08T14:30:28;10.00;99.90
51908;DHT22;39320;53.214;6.556;2023-01-08T14:32:55;10.00;99.90
51908;DHT22;39320;53.214;6.556;2023-01-08T14:35:23;10.10;99.90
51908;DHT22;39320;53.214;6.556;2023-01-08T14:37:50;10.10;99.90
51908;DHT22;39320;53.214;6.556;2023-01-08T14:40:23;10.10;99.90
51908;DHT22;39320;53.214;6.556;2023-01-08T14:42:52;10.10;99.90
51908;DHT22;39320;53.214;6.556;2023-01-08T14:45:27;10.00;99.90
51908;DHT22;39320;53.214;6.556;2023-01-08T14:47:55;10.00;99.90
51908;DHT22;39320;53.214;6.556;2023-01-08T14:50:23;9.90;99.90
51908;DHT22;39320;53.214;6.556;2023-01-08T14:52:51;10.00;99.90
51908;DHT22;39320;53.214;6.556;2023-01-08T14:55:19;10.00;99.90
51908;DHT22;39320;53.214;6.556;2023-01-08T14:57:45;10.00;99.90
51908;DHT22;39320;53.214;6.556;2023-01-08T15:00:15;10.00;99.90
51908;DHT22;39320;53.214;6.556;2023-01-08T15:02:41;10.60;99.90
51908;DHT22;39320;53.214;6.556;2023-01-08T15:05:18;10.00;99.90
51908;DHT22;39320;53.214;6.556;2023-01-08T15:10:38;9.90;99.90
51908;DHT22;39320;53.214;6.556;2023-01-08T15:13:05;9.90;99.90
51908;DHT22;39320;53.214;6.556;2023-01-08T15:15:33;9.90;99.90
51908;DHT22;39320;53.214;6.556;2023-01-08T15:17:59;9.90;99.90
51908;DHT22;39320;53.214;6.556;2023-01-08T15:20:28;9.80;99.90
51908;DHT22;39320;53.214;6.556;2023-01-08T15:22:55;9.90;99.90
51908;DHT22;39320;53.214;6.556;2023-01-08T15:25:25;9.90;99.90
51908;DHT22;39320;53.214;6.556;2023-01-08T15:28:01;9.80;99.90
51908;DHT22;39320;53.214;6.556;2023-01-08T15:35:53;9.80;99.90
51908;DHT22;39320;53.214;6.556;2023-01-08T15:38:18;9.80;99.90
51908;DHT22;39320;53.214;6.556;2023-01-08T15:40:48;9.80;99.90
51908;DHT22;39320;53.214;6.556;2023-01-08T15:43:15;9.80;99.90
51908;DHT22;39320;53.214;6.556;2023-01-08T15:45:41;9.70;99.90
51908;DHT22;39320;53.214;6.556;2023-01-08T15:48:08;9.70;99.90
51908;DHT22;39320;53.214;6.556;2023-01-08T15:50:34;9.70;99.90
51908;DHT22;39320;53.214;6.556;2023-01-08T15:53:04;9.60;99.90
51908;DHT22;39320;53.214;6.556;2023-01-08T15:55:30;9.60;99.90
51908;DHT22;39320;53.214;6.556;2023-01-08T15:57:56;9.60;99.90
51908;DHT22;39320;53.214;6.556;2023-01-08T16:00:22;9.60;99.90
51908;DHT22;39320;53.214;6.556;2023-01-08T16:02:49;9.50;99.90
51908;DHT22;39320;53.214;6.556;2023-01-08T16:05:15;9.50;99.90
51908;DHT22;39320;53.214;6.556;2023-01-08T16:07:42;9.50;99.90
51908;DHT22;39320;53.214;6.556;2023-01-08T16:10:07;9.50;99.90
51908;DHT22;39320;53.214;6.556;2023-01-08T16:12:34;9.50;99.90
51908;DHT22;39320;53.214;6.556;2023-01-08T16:14:59;9.50;99.90
51908;DHT22;39320;53.214;6.556;2023-01-08T16:17:27;9.50;99.90
51908;DHT22;39320;53.214;6.556;2023-01-08T16:19:56;9.40;99.90
51908;DHT22;39320;53.214;6.556;2023-01-08T16:22:21;9.50;99.90
51908;DHT22;39320;53.214;6.556;2023-01-08T16:24:47;9.40;99.90
51908;DHT22;39320;53.214;6.556;2023-01-08T16:27:12;9.40;99.90
51908;DHT22;39320;53.214;6.556;2023-01-08T16:29:38;9.40;99.90
51908;DHT22;39320;53.214;6.556;2023-01-08T16:32:04;9.40;99.90
51908;DHT22;39320;53.214;6.556;2023-01-08T16:34:29;9.40;99.90
51908;DHT22;39320;53.214;6.556;2023-01-08T16:36:55;9.30;99.90
51908;DHT22;39320;53.214;6.556;2023-01-08T16:39:20;9.30;99.90
51908;DHT22;39320;53.214;6.556;2023-01-08T16:41:46;9.30;99.90
51908;DHT22;39320;53.214;6.556;2023-01-08T16:44:15;9.30;99.90
51908;DHT22;39320;53.214;6.556;2023-01-08T16:46:41;9.20;99.90
51908;DHT22;39320;53.214;6.556;2023-01-08T16:49:07;9.20;99.90
51908;DHT22;39320;53.214;6.556;2023-01-08T16:51:33;9.20;99.90
51908;DHT22;39320;53.214;6.556;2023-01-08T16:53:59;9.20;99.90